Dye Mountain (222, 637) Station Data

Red Flag Warning: No
Fire Weather Zone: 250
SDGE Region: Ramona
Lat/Lon: 33.069/-116.71

Observations

Time Wind Speed/Gust Temp(F) RH Fuel Moist Fuel Temp(F) Dewpt(F) Tmax(F) Tmin(F) Accum Precip 10-min Precip SL Press(mb)
4/26 2:50am 57 2 G 4 54° 57% - - 40° 58° 52.6° - - 1012.0
4/26 2:40am 59 3 G 4 54° 58% - - 40° 58° 52.6° - - 1012.0
4/26 2:30am 62 2 G 4 55° 56% - - 39° 58° 52.6° - - 1012.0
4/26 2:20am 59 1 G 3 56° 53% - - 39° 58° 52.6° - - 1012.0
4/26 2:10am 1 4 G 6 57° 50% - - 39° 58° 52.6° - - 1012.0
4/26 2:00am 52 3 G 5 56° 55% - - 40° 57° 52.6° - - 1012.0
4/26 1:50am 53 5 G 6 56° 57% - - 41° 56.6° 52.6° - - 1012.0
4/26 1:40am 48 7 G 8 55° 59% - - 41° 55.8° 52.6° - - 1012.0
4/26 1:30am 46 7 G 8 54° 62% - - 42° 55.4° 52.6° - - 1013.0
4/26 1:20am 38 6 G 8 54° 64% - - 42° 55.1° 52.6° - - 1013.0
4/26 1:10am 33 6 G 8 54° 64% - - 42° 55.1° 52.6° - - 1013.0
4/26 1:00am 37 6 G 8 55° 63% - - 42° 55.1° 52.6° - - 1013.0
4/26 12:50am 39 6 G 8 54° 65% - - 43° 54.8° 52.6° - - 1013.0
4/26 12:40am 39 6 G 8 54° 67% - - 44° 54.8° 52.6° - - 1013.0
4/26 12:30am 39 7 G 9 54° 68% - - 44° 54.8° 52.6° - - 1013.0
4/26 12:20am 46 6 G 8 54° 72% - - 45° 54.8° 52.6° - - 1013.0
4/26 12:10am 43 6 G 7 53° 76% - - 46° 53.9° 52.6° - - 1014.0
4/26 12:00am 50 6 G 7 53° 78% - - 47° 60.4° 46.9° - - 1014.0
4/25 11:50pm 53 6 G 7 53° 80% - - 47° 60.4° 46.9° - - 1014.0
4/25 11:40pm 51 7 G 8 51° 86% - - 47° 60.4° 46.9° - - 1014.0
4/25 11:30pm 45 7 G 8 51° 87% - - 47° 60.4° 46.9° - - 1014.0
4/25 11:20pm 42 7 G 8 52° 86% - - 48° 60.4° 46.9° - - 1014.0
4/25 11:10pm 38 6 G 7 52° 86% - - 48° 60.4° 46.9° - - 1014.0
4/25 11:00pm 28 6 G 7 52° 85% - - 48° 60.4° 46.9° - - 1014.0
4/25 10:50pm 31 4 G 5 52° 87% - - 48° 60.4° 46.9° - - 1014.0
4/25 10:40pm 40 4 G 6 51° 90% - - 48° 60.4° 46.9° - - 1015.0
4/25 10:30pm 58 4 G 5 51° 90% - - 48° 60.4° 46.9° - - 1015.0
4/25 10:20pm 56 4 G 5 50° 91% - - 47° 60.4° 46.9° - - 1015.0
4/25 10:10pm 48 3 G 5 50° 90% - - 48° 60.4° 46.9° - - 1015.0
4/25 10:00pm 48 3 G 4 51° 90% - - 48° 60.4° 46.9° - - 1015.0
4/25 9:50pm 52 2 G 3 51° 89% - - 48° 60.4° 46.9° - - 1015.0
4/25 9:40pm 73 1 G 2 51° 89% - - 48° 60.4° 46.9° - - 1015.0
4/25 9:30pm 84 1 G 3 51° 89% - - 48° 60.4° 46.9° - - 1015.0
4/25 9:20pm 62 2 G 2 51° 89% - - 48° 60.4° 46.9° - - 1015.0
4/25 9:10pm 40 1 G 2 51° 88% - - 48° 60.4° 46.9° - - 1014.0
4/25 9:00pm 54 2 G 3 51° 88% - - 48° 60.4° 46.9° - - 1014.0
4/25 8:50pm 29 2 G 3 51° 86% - - 47° 60.4° 46.9° - - 1014.0
4/25 8:40pm 94 1 G 2 51° 88% - - 48° 60.4° 46.9° - - 1014.0
4/25 8:30pm 0 0 G 0 51° 88% - - 48° 60.4° 46.9° - - 1014.0
4/25 8:20pm 153 0 G 0 51° 87% - - 48° 60.4° 46.9° - - 1014.0
4/25 8:10pm 317 1 G 3 52° 87% - - 48° 60.4° 46.9° - - 1014.0
4/25 8:00pm 293 3 G 4 52° 86% - - 48° 60.4° 46.9° - - 1013.0
4/25 7:50pm 302 2 G 4 52° 86% - - 48° 60.4° 46.9° - - 1013.0
4/25 7:40pm 264 4 G 7 52° 85% - - 48° 60.4° 46.9° - - 1013.0
4/25 7:30pm 272 5 G 8 53° 84% - - 48° 60.4° 46.9° - - 1013.0
4/25 7:20pm 278 4 G 7 53° 83% - - 48° 60.4° 46.9° - - 1013.0
4/25 7:10pm 260 5 G 8 54° 82% - - 48° 60.4° 46.9° - - 1013.0
4/25 7:00pm 266 8 G 10 54° 81% - - 48° 60.4° 46.9° - - 1013.0
4/25 6:50pm 263 9 G 13 55° 79% - - 48° 60.4° 46.9° - - 1012.0
4/25 6:40pm 272 9 G 13 55° 78% - - 48° 60.4° 46.9° - - 1012.0
4/25 6:30pm 271 10 G 14 55° 78% - - 49° 60.4° 46.9° - - 1012.0
4/25 6:20pm 259 8 G 12 56° 77% - - 49° 60.4° 46.9° - - 1012.0
4/25 6:10pm 283 7 G 10 56° 77% - - 49° 60.4° 46.9° - - 1012.0
4/25 6:00pm 277 7 G 10 57° 76% - - 49° 60.4° 46.9° - - 1012.0
4/25 5:50pm 273 8 G 12 57° 76% - - 49° 60.4° 46.9° - - 1012.0
4/25 5:40pm 259 10 G 16 57° 76% - - 49° 60.4° 46.9° - - 1012.0
4/25 5:30pm 253 10 G 15 57° 76% - - 49° 60.4° 46.9° - - 1012.0
4/25 5:20pm 268 10 G 16 57° 73% - - 49° 60.4° 46.9° - - 1012.0
4/25 5:10pm 257 10 G 14 58° 70% - - 48° 60.4° 46.9° - - 1011.0
4/25 5:00pm 268 8 G 14 58° 69% - - 48° 60.4° 46.9° - - 1011.0
4/25 4:50pm 268 9 G 14 58° 69% - - 48° 60.4° 46.9° - - 1011.0
4/25 4:40pm 255 9 G 13 58° 69% - - 48° 60.4° 46.9° - - 1011.0
4/25 4:30pm 261 9 G 14 58° 70% - - 48° 60.4° 46.9° - - 1011.0
4/25 4:20pm 256 9 G 17 58° 69% - - 48° 60.4° 46.9° - - 1011.0
4/25 4:10pm 255 9 G 16 59° 68% - - 49° 60.4° 46.9° - - 1011.0
4/25 4:00pm 258 9 G 14 58° 71% - - 49° 60.4° 46.9° - - 1011.0
4/25 3:50pm 268 11 G 16 58° 72% - - 49° 60.4° 46.9° - - 1011.0
4/25 3:40pm 268 11 G 15 58° 72% - - 49° 60.4° 46.9° - - 1012.0
4/25 3:30pm 279 13 G 18 58° 71% - - 49° 60.4° 46.9° - - 1012.0
4/25 3:20pm 261 11 G 15 58° 70% - - 49° 60.4° 46.9° - - 1011.0
4/25 3:10pm 257 11 G 17 59° 68% - - 48° 60.4° 46.9° - - 1011.0
4/25 3:00pm 236 6 G 13 59° 68% - - 48° 60.4° 46.9° - - 1011.0
4/25 2:50pm 241 9 G 15 58° 69% - - 48° 60.4° 46.9° - - 1011.0
4/25 2:40pm 247 9 G 16 58° 69% - - 48° 60.4° 46.9° - - 1011.0
4/25 2:30pm 258 9 G 17 58° 68% - - 48° 60.4° 46.9° - - 1012.0
4/25 2:20pm 244 9 G 17 58° 68% - - 48° 60.4° 46.9° - - 1012.0
4/25 2:10pm 264 12 G 17 59° 67% - - 48° 60.4° 46.9° - - 1012.0
4/25 2:00pm 258 13 G 20 58° 67% - - 47° 60.4° 46.9° - - 1012.0
4/25 1:50pm 247 9 G 17 59° 65% - - 47° 60.4° 46.9° - - 1012.0
4/25 1:40pm 259 10 G 17 59° 63% - - 46° 60.4° 46.9° - - 1012.0
4/25 1:30pm 257 11 G 16 59° 62% - - 46° 60.4° 46.9° - - 1012.0
4/25 1:20pm 255 9 G 16 59° 63% - - 46° 60.4° 46.9° - - 1012.0
4/25 1:10pm 262 9 G 17 58° 66% - - 46° 59.5° 46.9° - - 1012.0
4/25 1:00pm 256 12 G 19 58° 65% - - 46° 59.5° 46.9° - - 1013.0
4/25 12:50pm 259 12 G 19 57° 65% - - 46° 59.5° 46.9° - - 1013.0
4/25 12:40pm 266 12 G 19 57° 64% - - 45° 59.5° 46.9° - - 1013.0
4/25 12:30pm 257 10 G 17 58° 64% - - 46° 59.5° 46.9° - - 1013.0
4/25 12:20pm 261 11 G 18 57° 64% - - 45° 57.9° 46.9° - - 1013.0
4/25 12:10pm 250 10 G 17 57° 64% - - 45° 57.9° 46.9° - - 1013.0
4/25 12:00pm 253 9 G 17 56° 67% - - 46° 57.9° 46.9° - - 1013.0
4/25 11:50am 260 11 G 17 56° 67% - - 46° 57.7° 46.9° - - 1013.0
4/25 11:40am 257 8 G 14 56° 70% - - 46° 57.2° 46.9° - - 1013.0
4/25 11:30am 252 9 G 15 55° 72% - - 46° 56.1° 46.9° - - 1013.0
4/25 11:20am 258 7 G 11 55° 71% - - 46° 56.1° 46.9° - - 1013.0
4/25 11:10am 272 10 G 17 55° 70% - - 45° 56° 46.9° - - 1013.0
4/25 11:00am 268 7 G 12 55° 72% - - 46° 55.6° 46.9° - - 1014.0
4/25 10:50am 251 8 G 14 54° 77% - - 46° 55.4° 46.9° - - 1014.0
4/25 10:40am 227 6 G 10 54° 77% - - 47° 55.4° 46.9° - - 1014.0
4/25 10:30am 250 8 G 13 54° 77% - - 47° 55.4° 46.9° - - 1014.0
4/25 10:20am 210 4 G 9 53° 79% - - 47° 55.2° 46.9° - - 1014.0
4/25 10:10am 219 6 G 10 52° 80% - - 47° 53.8° 46.9° - - 1014.0
4/25 10:00am 234 5 G 11 52° 84% - - 47° 53.8° 46.9° - - 1014.0
4/25 9:50am 179 6 G 11 53° 86% - - 48° 53.2° 46.9° - - 1014.0
4/25 9:40am 201 6 G 9 51° 89% - - 48° 52.4° 46.9° - - 1014.0
4/25 9:30am 240 8 G 16 51° 88% - - 48° 51.9° 46.9° - - 1014.0
4/25 9:20am 239 7 G 12 50° 92% - - 48° 51.4° 46.9° - - 1014.0
4/25 9:10am 242 7 G 12 50° 96% - - 49° 50.9° 46.9° - - 1014.0
4/25 9:00am 237 7 G 13 50° 99% - - 50° 50.6° 46.9° - - 1014.0
4/25 8:50am 225 5 G 9 49° 99% - - 49° 50° 46.9° - - 1014.0
4/25 8:40am 213 6 G 9 49° 99% - - 49° 50° 46.9° - - 1014.0
4/25 8:30am 222 5 G 9 49° 99% - - 49° 49.7° 46.9° - - 1014.0
4/25 8:20am 230 5 G 10 48° 99% - - 48° 49.2° 46.9° - - 1014.0
4/25 8:10am 212 5 G 9 48° 100% - - 48° 48.8° 46.9° - - 1014.0
4/25 8:00am 222 4 G 7 48° 100% - - 48° 48.6° 46.9° - - 1014.0
4/25 7:50am 216 5 G 8 48° 100% - - 48° 48.6° 46.9° - - 1013.0
4/25 7:40am 208 5 G 9 48° 100% - - 48° 48.6° 46.9° - - 1013.0
4/25 7:30am 210 4 G 8 48° 100% - - 48° 48.6° 46.9° - - 1013.0
4/25 7:20am 214 5 G 9 48° 100% - - 48° 48.6° 46.9° - - 1013.0
4/25 7:10am 206 6 G 9 48° 100% - - 48° 48.6° 46.9° - - 1013.0
4/25 7:00am 233 5 G 9 48° 100% - - 47° 48.6° 46.9° - - 1013.0
4/25 6:50am 220 5 G 10 48° 100% - - 47° 48.6° 46.9° - - 1013.0
4/25 6:40am 228 6 G 11 47° 100% - - 47° 48.6° 46.9° - - 1013.0
4/25 6:30am 229 6 G 11 47° 100% - - 47° 48.6° 46.9° - - 1012.0
4/25 6:20am 231 6 G 11 47° 100% - - 47° 48.6° 46.9° - - 1012.0
4/25 6:10am 220 6 G 11 47° 100% - - 47° 48.6° 46.9° - - 1012.0
4/25 6:00am 218 5 G 10 47° 100% - - 47° 48.6° 46.9° - - 1012.0
4/25 5:50am 226 6 G 10 47° 100% - - 47° 48.6° 46.9° - - 1012.0
4/25 5:40am 218 6 G 11 47° 100% - - 47° 48.6° 46.9° - - 1012.0
4/25 5:30am 209 6 G 11 47° 100% - - 47° 48.6° 46.9° - - 1012.0
4/25 5:20am 215 6 G 9 47° 100% - - 47° 48.6° 46.9° - - 1012.0
4/25 5:10am 217 4 G 7 47° 100% - - 47° 48.6° 46.9° - - 1012.0
4/25 5:00am 204 6 G 12 47° 100% - - 47° 48.6° 46.9° - - 1012.0
4/25 4:50am 215 6 G 11 47° 100% - - 47° 48.6° 46.9° - - 1012.0
4/25 4:40am 214 7 G 11 47° 100% - - 47° 48.6° 47° - - 1012.0
4/25 4:30am 223 6 G 11 47° 100% - - 47° 48.6° 47.1° - - 1012.0
4/25 4:20am 212 7 G 13 47° 99% - - 47° 48.6° 47.1° - - 1012.0
4/25 4:10am 216 9 G 16 48° 99% - - 47° 48.6° 47.1° - - 1012.0
4/25 4:00am 210 8 G 14 48° 99% - - 48° 48.6° 47.1° - - 1012.0
4/25 3:50am 210 7 G 14 48° 100% - - 48° 48.6° 47.1° - - 1012.0
4/25 3:40am 208 8 G 14 48° 99% - - 48° 48.6° 47.1° - - 1012.0
4/25 3:30am 206 9 G 14 48° 99% - - 47° 48.6° 47.1° - - 1012.0
4/25 3:20am 215 7 G 14 48° 99% - - 47° 48.6° 47.1° - - 1012.0
4/25 3:10am 231 7 G 14 48° 99% - - 48° 48.6° 47.1° - - 1012.0
4/25 3:00am 214 7 G 12 48° 99% - - 47° 48.6° 47.1° - - 1012.0
4/25 2:50am 221 7 G 13 48° 99% - - 47° 48.6° 47.1° - - 1012.0
4/25 2:40am 235 8 G 15 48° 99% - - 47° 48.6° 47.1° - - 1012.0
4/25 2:30am 221 7 G 12 47° 99% - - 47° 48.6° 47.1° - - 1012.0
4/25 2:20am 220 6 G 11 47° 99% - - 47° 48.6° 47.1° - - 1013.0
4/25 2:10am 209 8 G 15 47° 99% - - 47° 48.6° 47.1° - - 1012.0
4/25 2:00am 211 8 G 13 47° 99% - - 47° 48.6° 47.1° - - 1013.0
4/25 1:50am 210 8 G 13 47° 99% - - 47° 48.6° 47.1° - - 1013.0
4/25 1:40am 206 8 G 16 47° 99% - - 47° 48.6° 47.1° - - 1013.0
4/25 1:30am 199 12 G 20 48° 99% - - 47° 48.6° 47.2° - - 1012.0
4/25 1:20am 205 9 G 16 48° 99% - - 47° 48.6° 47.3° - - 1013.0
4/25 1:10am 222 7 G 13 48° 99% - - 47° 48.6° 47.4° - - 1013.0
4/25 1:00am 198 10 G 16 48° 98% - - 47° 48.6° 47.5° - - 1013.0
4/25 12:50am 205 8 G 16 48° 98% - - 47° 48.6° 47.5° - - 1013.0
4/25 12:40am 208 6 G 11 48° 98% - - 47° 48.6° 47.5° - - 1013.0
4/25 12:30am 209 6 G 10 48° 98% - - 47° 48.6° 47.6° - - 1013.0
4/25 12:20am 214 5 G 8 48° 98% - - 47° 48.6° 47.7° - - 1013.0
4/25 12:10am 216 7 G 13 48° 97% - - 47° 48.5° 47.7° - - 1013.0
4/25 12:00am 210 9 G 15 48° 97% - - 47° 64.2° 43.1° - - 1012.0
4/24 11:50pm 212 7 G 12 48° 98% - - 48° 64.2° 43.1° - - 1013.0
4/24 11:40pm 234 9 G 15 48° 98% - - 48° 64.2° 43.1° - - 1014.0
4/24 11:30pm 246 8 G 13 49° 97% - - 48° 64.2° 43.1° - - 1014.0
4/24 11:20pm 243 8 G 14 49° 97% - - 48° 64.2° 43.1° - - 1014.0
4/24 11:10pm 246 9 G 14 49° 97% - - 48° 64.2° 43.1° - - 1014.0
4/24 11:00pm 245 7 G 12 49° 98% - - 48° 64.2° 43.1° - - 1013.0
4/24 10:50pm 242 7 G 14 49° 97% - - 49° 64.2° 43.1° - - 1013.0
4/24 10:40pm 225 6 G 11 49° 97% - - 49° 64.2° 43.1° - - 1013.0
4/24 10:30pm 229 6 G 11 50° 97% - - 49° 64.2° 43.1° - - 1013.0
4/24 10:20pm 225 5 G 8 50° 97% - - 49° 64.2° 43.1° - - 1013.0
4/24 10:10pm 229 5 G 9 50° 96% - - 49° 64.2° 43.1° - - 1013.0
4/24 10:00pm 246 7 G 11 50° 96% - - 49° 64.2° 43.1° - - 1013.0
4/24 9:50pm 241 6 G 11 50° 95% - - 48° 64.2° 43.1° - - 1013.0
4/24 9:40pm 240 6 G 10 50° 94% - - 48° 64.2° 43.1° - - 1013.0
4/24 9:30pm 237 6 G 10 50° 95% - - 48° 64.2° 43.1° - - 1013.0
4/24 9:20pm 243 6 G 10 50° 96% - - 49° 64.2° 43.1° - - 1013.0
4/24 9:10pm 246 6 G 13 50° 96% - - 49° 64.2° 43.1° - - 1013.0
4/24 9:00pm 246 8 G 12 50° 96% - - 49° 64.2° 43.1° - - 1013.0
4/24 8:50pm 245 8 G 12 50° 97% - - 50° 64.2° 43.1° - - 1013.0
4/24 8:40pm 240 7 G 11 51° 97% - - 50° 64.2° 43.1° - - 1013.0
4/24 8:30pm 239 7 G 11 51° 97% - - 50° 64.2° 43.1° - - 1013.0
4/24 8:20pm 240 6 G 10 51° 97% - - 50° 64.2° 43.1° - - 1013.0
4/24 8:10pm 248 6 G 10 51° 97% - - 50° 64.2° 43.1° - - 1013.0
4/24 8:00pm 238 7 G 11 51° 96% - - 50° 64.2° 43.1° - - 1013.0
4/24 7:50pm 243 7 G 11 51° 95% - - 50° 64.2° 43.1° - - 1013.0
4/24 7:40pm 243 8 G 15 52° 95% - - 50° 64.2° 43.1° - - 1013.0
4/24 7:30pm 244 8 G 15 52° 93% - - 50° 64.2° 43.1° - - 1012.0
4/24 7:20pm 237 7 G 12 52° 92% - - 50° 64.2° 43.1° - - 1012.0
4/24 7:10pm 241 9 G 15 53° 91% - - 50° 64.2° 43.1° - - 1012.0
4/24 7:00pm 243 9 G 15 53° 90% - - 50° 64.2° 43.1° - - 1012.0
4/24 6:50pm 242 9 G 14 54° 88% - - 50° 64.2° 43.1° - - 1012.0
4/24 6:40pm 243 9 G 15 54° 85% - - 50° 64.2° 43.1° - - 1012.0
4/24 6:30pm 239 8 G 15 55° 83% - - 50° 64.2° 43.1° - - 1012.0
4/24 6:20pm 233 8 G 16 56° 80% - - 50° 64.2° 43.1° - - 1012.0
4/24 6:10pm 222 7 G 12 56° 79% - - 49° 64.2° 43.1° - - 1012.0
4/24 6:00pm 225 7 G 13 56° 79% - - 50° 64.2° 43.1° - - 1012.0